Date,TemperatureHighF,TemperatureAvgF,TemperatureLowF,DewpointHighF,DewpointAvgF,DewpointLowF,HumidityHigh,HumidityAvg,HumidityLow,PressureMaxIn,PressureMinIn,WindSpeedMaxMPH,WindSpeedAvgMPH,GustSpeedMaxMPH,PrecipitationSumIn
2014-1-1,14,11,4,8,5,1,84,78,69,30.36,30.14,18,7,18,0.00
2014-1-2,6,1,-10,3,-2,-14,89,86,81,30.35,29.92,12,3,12,0.00
2014-1-3,-5,-10,-16,-10,-15,-20,84,80,67,30.45,29.90,21,6,21,0.00
2014-1-4,26,4,-16,12,-3,-20,89,76,42,30.48,30.23,7,1,7,0.00
2014-1-5,38,23,6,37,17,3,96,81,52,30.29,29.83,17,3,17,0.00
2014-1-6,46,34,16,46,31,8,97,89,67,29.83,29.25,40,13,40,0.07
2014-1-7,16,2,-1,9,-7,-12,80,66,57,30.12,29.44,34,19,34,0.00
2014-1-8,12,6,0,4,-1,-8,76,71,62,30.42,30.12,32,14,32,0.00
2014-1-9,19,13,4,8,5,1,88,73,60,30.60,30.39,32,10,32,0.00
2014-1-10,30,20,4,28,18,1,94,90,88,30.54,30.21,2,0,2,0.00
2014-1-11,53,42,28,52,41,26,98,96,87,30.21,29.17,23,4,23,0.06
2014-1-12,42,35,31,39,29,24,92,80,68,29.91,29.23,28,15,28,0.00
2014-1-13,49,38,25,33,26,20,93,67,34,30.01,29.75,18,4,18,0.00
2014-1-14,45,40,35,41,37,33,97,90,64,29.76,29.61,18,3,18,0.00
2014-1-15,45,36,28,34,31,26,96,84,58,29.90,29.72,12,2,12,0.00
2014-1-16,33,28,25,31,27,24,96,95,92,29.90,29.82,9,2,9,0.00
2014-1-17,37,28,22,29,24,20,97,85,61,29.90,29.83,12,2,12,0.00
2014-1-18,35,26,19,29,24,18,96,91,76,29.88,29.63,12,2,12,0.00
2014-1-19,26,23,21,25,19,16,94,85,73,29.69,29.43,31,11,31,0.00
2014-1-20,28,19,2,26,16,-1,92,88,85,29.87,29.45,30,11,30,0.00
2014-1-21,2,-2,-8,-1,-7,-12,87,81,71,30.06,29.87,12,3,12,0.00
2014-1-22,-1,-8,-14,-9,-13,-18,83,77,67,30.00,29.84,17,6,17,0.00
2014-1-23,6,-1,-12,0,-8,-16,87,75,60,30.17,30.00,16,5,16,0.00
2014-1-24,8,1,-6,-2,-7,-11,80,70,51,30.26,29.91,20,7,20,0.00
2014-1-25,19,15,6,16,8,-2,91,77,48,29.91,29.28,20,5,20,0.00
2014-1-26,17,8,1,14,-2,-12,90,67,50,29.76,29.30,31,12,31,0.00
2014-1-27,40,20,6,31,11,-6,92,69,43,29.94,29.42,34,12,35,0.00
2014-1-28,9,4,-2,-1,-6,-9,78,64,54,30.25,29.93,23,9,23,0.00
2014-1-29,13,5,-7,0,-6,-12,81,61,40,30.20,29.96,29,10,29,0.00
2014-1-30,25,14,6,8,4,0,80,65,40,30.37,30.03,18,4,18,0.00
2014-1-31,29,26,15,20,11,0,74,55,36,30.14,29.94,28,13,28,0.00
2014-2-1,40,30,18,30,23,14,93,77,54,30.28,29.90,18,4,18,0.00
2014-2-2,41,36,28,33,30,24,94,80,64,30.05,29.79,23,10,23,0.00
2014-2-3,28,24,19,24,20,15,86,82,76,30.26,30.04,12,3,12,0.00
2014-2-4,27,20,10,16,13,7,92,77,58,30.43,30.26,14,2,14,0.00
2014-2-5,22,19,9,20,16,6,94,89,69,30.27,29.69,13,4,13,0.00
2014-2-6,16,10,4,12,5,1,90,83,69,30.26,29.98,20,5,20,0.00
2014-2-7,19,14,12,9,6,1,81,69,53,30.19,30.12,32,15,32,0.00
2014-2-8,18,13,7,6,3,-2,75,65,55,30.25,30.13,21,8,21,0.00
2014-2-9,24,16,8,15,10,4,90,76,53,30.14,29.91,12,2,12,0.00
2014-2-10,17,14,10,14,9,4,91,83,72,30.17,29.89,16,6,16,0.00
2014-2-11,15,8,2,6,2,-3,87,75,60,30.46,30.17,20,6,20,0.00
2014-2-12,28,9,-9,5,-3,-13,87,60,27,30.57,30.34,10,2,10,0.00
2014-2-13,26,18,8,25,15,0,95,87,62,30.34,29.15,13,3,13,0.00
2014-2-14,26,22,17,24,20,15,94,92,88,29.68,28.98,40,15,40,0.00
2014-2-15,29,24,18,27,22,16,95,92,89,29.78,29.63,26,4,26,0.00
2014-2-16,20,14,8,16,8,-3,92,78,58,30.02,29.65,31,13,31,0.00
2014-2-17,17,7,-2,-1,-4,-8,79,61,42,30.38,30.02,20,6,20,0.00
2014-2-18,22,14,-2,20,10,-7,95,83,48,30.32,29.99,19,4,20,0.00
2014-2-19,33,24,14,32,22,12,97,92,85,30.05,29.70,23,3,23,0.00
2014-2-20,42,34,27,32,27,21,95,76,46,30.13,29.87,26,8,26,0.01
2014-2-21,37,34,32,35,32,31,97,95,79,30.03,29.64,23,6,23,0.01
2014-2-22,42,37,32,31,23,14,83,57,37,29.86,29.74,40,15,40,0.00
2014-2-23,40,36,31,29,23,12,75,59,45,29.90,29.72,31,11,31,0.00
2014-2-24,31,20,14,15,10,5,77,64,43,29.90,29.71,31,14,31,0.00
2014-2-25,16,13,9,12,5,0,89,73,60,29.92,29.85,26,11,26,0.00
2014-2-26,16,10,0,10,4,-7,88,73,55,29.87,29.76,30,11,30,0.00
2014-2-27,19,9,-1,10,0,-8,87,69,50,29.88,29.55,31,9,31,0.00
2014-2-28,13,4,-5,-2,-8,-11,82,60,34,30.41,29.88,26,8,26,0.00
2014-3-1,31,16,-4,15,2,-11,76,56,33,30.42,30.03,20,3,20,0.00
2014-3-2,31,20,10,20,13,6,89,76,52,30.05,29.98,23,8,23,0.00
2014-3-3,14,7,-3,6,-2,-9,87,70,46,30.30,30.01,18,4,18,0.00
2014-3-4,21,7,-8,9,-2,-12,88,68,31,30.35,30.25,16,3,16,0.00
2014-3-5,19,12,-3,14,7,-7,89,82,63,30.54,30.23,17,4,17,0.01
2014-3-6,28,8,-10,2,-6,-15,86,58,24,30.67,30.48,8,2,8,0.00
2014-3-7,41,18,-1,16,2,-9,76,54,18,30.49,29.94,7,1,10,0.00
2014-3-8,41,27,16,28,21,12,91,77,56,29.94,29.75,21,5,21,0.00
2014-3-9,30,23,14,15,9,4,77,58,35,29.94,29.82,22,8,22,0.00
2014-3-10,34,28,21,29,22,11,91,77,61,29.82,29.50,21,8,21,0.00
2014-3-11,47,39,31,34,30,25,95,73,44,29.66,29.44,26,8,26,0.01
2014-3-12,33,28,12,32,26,9,95,92,83,29.66,29.16,6,0,6,0.00
2014-3-13,11,6,3,9,3,0,91,86,78,29.96,29.18,20,10,20,0.00
2014-3-14,33,9,2,25,4,-2,88,81,67,30.11,29.82,20,4,20,0.00
2014-3-15,42,35,27,33,27,18,90,74,59,29.85,29.61,28,15,28,0.00
2014-3-16,27,16,6,18,3,-5,73,57,41,30.21,29.83,30,15,30,0.00
2014-3-17,20,9,-2,0,-4,-8,78,58,33,30.19,30.09,15,4,15,0.00
2014-3-18,40,18,-2,14,2,-7,81,54,20,30.32,30.17,9,2,9,0.00
2014-3-19,33,26,15,28,15,4,95,65,32,30.30,29.87,22,5,22,0.00
2014-3-20,37,33,28,35,29,24,98,87,69,29.88,29.58,35,13,35,0.00
2014-3-21,32,29,24,25,22,17,91,75,61,29.99,29.65,33,16,33,0.00
2014-3-22,39,28,15,33,22,12,93,78,63,30.00,29.62,37,8,37,0.00
2014-3-23,30,23,10,23,13,-2,78,64,46,30.10,29.87,30,11,30,0.00
2014-3-24,23,14,2,4,-1,-5,73,53,38,30.15,30.04,20,7,20,0.00
2014-3-25,29,17,4,11,6,-1,90,63,40,30.10,29.94,20,4,20,0.00
2014-3-26,23,20,16,13,9,2,78,65,42,29.94,29.79,31,9,31,0.00
2014-3-27,32,28,7,18,8,-2,65,43,32,30.31,30.14,32,4,32,0.00
2014-3-28,46,37,29,44,33,13,96,87,42,30.14,29.85,26,5,26,0.01
2014-3-29,49,40,35,40,36,34,96,85,59,30.21,29.91,24,7,24,0.01
2014-3-30,37,33,27,36,32,27,98,96,95,29.92,29.68,20,7,20,0.01
2014-3-31,29,27,25,27,26,24,97,96,92,30.10,29.75,31,11,31,0.00
2014-4-1,48,34,21,32,28,19,95,79,51,30.12,29.99,12,3,12,0.00
2014-4-2,49,40,30,35,30,25,94,69,51,30.03,29.97,26,7,26,0.00
2014-4-3,43,36,29,28,25,23,81,64,50,30.11,30.02,20,7,20,0.00
2014-4-4,44,35,28,32,27,21,95,73,53,30.10,29.77,23,8,23,0.01
2014-4-5,39,34,30,35,29,23,97,83,64,29.92,29.65,43,13,43,0.00
2014-4-6,47,36,27,28,23,20,78,62,38,30.16,29.91,27,10,27,0.00
2014-4-7,54,41,29,36,27,22,92,61,31,30.16,29.75,31,5,31,0.00
2014-4-8,55,43,36,49,39,32,97,88,73,29.75,29.22,32,12,32,0.00
2014-4-9,40,36,32,34,27,10,91,74,33,29.91,29.46,30,10,30,0.00
2014-4-10,59,45,28,33,25,17,74,48,30,30.05,29.83,20,7,20,0.00
2014-4-11,61,50,35,42,35,26,94,60,30,29.97,29.79,18,6,18,0.01
2014-4-12,59,44,31,40,32,28,98,68,32,30.18,29.95,22,5,22,0.00
2014-4-13,60,47,39,49,40,29,96,76,62,30.17,29.89,17,4,17,0.01
2014-4-14,74,59,43,56,50,41,98,73,48,29.90,29.66,29,6,29,0.00
2014-4-15,62,52,30,59,49,28,96,88,69,29.74,29.36,26,9,26,0.01
2014-4-16,31,24,18,28,20,16,96,83,67,30.60,29.70,28,7,28,0.00
2014-4-17,44,30,19,22,19,15,90,64,37,30.77,30.59,13,5,13,0.00
2014-4-18,47,36,23,27,21,14,81,57,35,30.60,30.18,13,3,13,0.00
2014-4-19,48,40,30,37,30,24,83,69,51,30.39,30.11,22,6,22,0.00
2014-4-20,61,43,27,28,22,16,85,49,18,30.47,30.22,15,3,15,0.00
2014-4-21,70,52,34,33,29,24,76,45,20,30.22,29.74,17,3,17,0.00
2014-4-22,66,54,43,50,40,27,91,62,26,29.74,29.40,24,4,24,0.01
2014-4-23,51,42,38,48,38,27,96,84,65,29.69,29.39,26,10,26,0.00
2014-4-24,48,39,31,28,23,18,63,53,41,29.95,29.68,29,14,29,0.00
2014-4-25,60,47,32,32,23,17,65,42,23,30.00,29.70,13,5,13,0.00
2014-4-26,50,42,38,42,39,29,97,90,45,29.77,29.65,12,2,12,0.02
2014-4-27,40,38,34,37,35,33,96,91,86,30.09,29.80,20,9,20,0.00
2014-4-28,53,44,35,40,38,34,96,80,60,30.15,30.01,15,6,15,0.00
2014-4-29,50,42,36,39,35,31,95,80,54,30.41,30.15,22,10,22,0.02
2014-4-30,39,36,34,37,35,32,96,94,87,30.42,30.08,18,9,18,0.02
2014-5-1,64,49,37,55,46,36,98,90,66,30.08,29.63,21,6,21,0.13
2014-5-2,53,48,42,44,39,35,89,72,60,29.76,29.61,21,8,21,0.05
2014-5-3,56,49,45,47,42,37,95,77,55,29.78,29.62,16,4,16,0.09
2014-5-4,46,43,40,43,40,37,96,89,78,29.66,29.48,30,12,30,0.35
2014-5-5,49,44,40,43,41,38,97,90,77,29.86,29.65,18,7,18,0.10
2014-5-6,53,44,35,38,34,28,95,68,40,30.04,29.82,22,5,22,0.00
2014-5-7,60,47,36,37,31,26,77,56,30,30.19,30.04,18,5,18,0.00
2014-5-8,70,54,36,42,34,22,87,53,17,30.14,30.02,12,3,12,0.00
2014-5-9,55,52,48,53,46,34,93,80,51,30.11,29.94,14,4,14,0.01
2014-5-10,75,65,55,61,53,31,97,71,31,29.94,29.66,28,9,28,0.21
2014-5-11,69,60,52,42,38,31,65,44,28,29.97,29.75,25,11,25,0.00
2014-5-12,78,65,52,48,42,36,69,43,28,30.02,29.93,20,6,20,0.00
2014-5-13,58,51,47,48,45,41,95,81,53,30.20,30.00,12,4,12,0.08
2014-5-14,78,60,46,58,49,43,90,68,42,30.21,30.11,14,4,14,0.00
2014-5-15,74,64,54,64,59,50,96,85,70,30.15,30.03,21,5,21,0.00
2014-5-16,65,63,61,62,60,58,95,91,85,30.03,29.76,24,8,24,0.25
2014-5-17,64,52,43,62,45,37,96,78,54,30.05,29.66,27,8,27,1.14
2014-5-18,61,48,36,38,35,30,93,63,36,30.14,30.05,18,6,18,0.00
2014-5-19,62,51,37,40,35,32,84,55,35,30.11,30.01,20,7,20,0.00
2014-5-20,66,56,43,44,38,30,79,54,28,30.05,29.93,22,7,22,0.00
2014-5-21,74,59,41,49,41,36,92,58,28,29.94,29.81,11,2,11,0.00
2014-5-22,59,53,46,55,50,44,97,90,72,29.82,29.74,14,2,14,1.04
2014-5-23,61,54,50,57,53,50,98,96,83,29.91,29.78,10,1,10,1.40
2014-5-24,64,54,48,57,51,47,99,89,63,30.01,29.90,9,2,9,0.10
2014-5-25,74,60,45,55,49,44,99,72,39,30.02,29.92,15,4,15,0.01
2014-5-26,72,63,55,60,53,45,91,71,53,29.92,29.75,20,6,20,0.09
2014-5-27,78,63,47,64,54,46,96,75,52,29.80,29.61,22,5,22,0.24
2014-5-28,50,46,43,47,45,42,97,94,87,30.17,29.79,10,3,10,0.09
2014-5-29,67,53,36,46,42,35,98,69,36,30.20,30.04,13,2,13,0.00
2014-5-30,68,55,48,54,49,45,95,82,49,30.05,29.94,20,3,20,0.40
2014-5-31,64,53,45,53,49,44,97,86,66,30.27,30.04,12,3,12,0.01
2014-6-1,73,58,43,54,48,42,98,73,45,30.31,30.14,17,3,17,0.00
2014-6-2,80,65,48,56,51,45,91,65,35,30.14,29.92,15,3,15,0.00
2014-6-3,83,68,55,68,61,54,97,81,50,29.93,29.71,18,3,18,0.90
2014-6-4,71,64,56,62,56,47,98,78,48,29.76,29.67,20,4,20,0.07
2014-6-5,71,59,53,56,52,47,94,78,51,29.70,29.59,14,2,14,0.11
2014-6-6,65,56,51,57,53,50,97,88,67,29.89,29.69,15,5,15,0.27
2014-6-7,76,62,49,58,54,48,98,76,46,29.94,29.85,14,3,14,0.00
2014-6-8,81,66,52,62,55,50,98,71,41,29.91,29.79,12,2,12,0.00
2014-6-9,76,66,58,65,59,55,92,80,59,29.90,29.81,8,2,8,0.00
2014-6-10,73,64,59,65,60,56,94,86,70,30.02,29.85,12,2,12,0.00
2014-6-11,62,57,54,56,53,51,95,88,71,30.09,30.02,12,2,12,0.30
2014-6-12,59,56,52,59,54,51,98,95,89,30.07,29.95,13,3,13,0.53
2014-6-13,62,59,56,61,58,55,98,97,93,29.95,29.73,10,3,10,0.41
2014-6-14,65,58,52,59,54,49,99,87,70,29.93,29.72,20,5,20,0.16
2014-6-15,67,58,51,57,52,48,92,82,64,30.06,29.91,18,7,18,0.00
2014-6-16,77,62,46,57,50,42,98,68,32,30.11,29.96,12,2,12,0.00
2014-6-17,81,69,55,65,59,53,95,73,46,29.98,29.64,15,3,19,0.57
2014-6-18,76,67,64,65,62,59,94,83,68,29.90,29.62,25,10,25,0.64
2014-6-19,72,65,52,61,52,41,93,67,34,29.96,29.88,15,5,15,0.01
2014-6-20,65,56,47,48,45,40,88,66,44,29.96,29.89,23,6,23,0.00
2014-6-21,66,55,44,52,46,42,96,73,52,29.94,29.87,14,3,14,0.00
2014-6-22,73,60,44,55,49,42,97,71,40,29.97,29.89,13,3,13,0.00
2014-6-23,78,65,49,62,54,48,97,71,41,30.05,29.97,14,2,14,0.00
2014-6-24,76,68,60,64,60,56,88,77,63,30.03,29.85,20,4,20,0.00
2014-6-25,75,70,66,69,66,62,97,86,75,29.85,29.75,15,4,15,1.26
2014-6-26,71,64,57,66,62,55,99,93,79,29.96,29.73,15,4,15,0.13
2014-6-27,79,65,52,62,55,48,99,73,38,30.13,29.96,10,2,10,0.00
2014-6-28,81,66,51,63,56,49,98,72,38,30.22,30.13,10,1,10,0.00
2014-6-29,82,69,54,66,59,53,98,75,50,30.18,29.99,12,2,12,0.00
2014-6-30,80,70,60,70,64,59,96,81,65,30.00,29.82,14,3,14,0.00
2014-7-1,86,75,65,72,68,63,97,79,53,29.84,29.65,20,4,20,0.02
2014-7-2,88,74,66,73,69,65,96,85,52,29.84,29.68,17,3,17,0.52
2014-7-3,85,72,63,72,67,62,99,86,59,29.88,29.76,36,2,36,0.68
2014-7-4,68,63,58,64,61,53,98,92,82,29.93,29.83,17,4,17,0.16
2014-7-5,74,64,54,55,50,45,91,62,43,30.00,29.86,26,12,26,0.00
2014-7-6,75,68,61,58,53,48,80,59,47,29.95,29.77,26,10,26,0.00
2014-7-7,78,68,58,70,61,52,94,78,61,29.77,29.59,16,5,16,0.41
2014-7-8,81,73,66,73,68,63,94,83,66,29.69,29.50,29,7,29,1.07
2014-7-9,76,67,62,65,62,58,96,85,61,29.87,29.53,27,10,27,0.47
2014-7-10,72,63,54,61,54,50,96,74,46,30.11,29.87,15,5,15,0.00
2014-7-11,73,62,50,59,54,49,97,75,52,30.19,30.10,8,2,8,0.00
2014-7-12,81,67,51,65,58,50,98,76,53,30.17,30.00,18,2,18,0.00
2014-7-13,80,72,67,69,66,62,94,83,65,30.00,29.74,18,4,18,0.22
2014-7-14,81,72,64,68,66,61,98,81,53,29.81,29.74,14,3,14,0.00
2014-7-15,81,70,61,70,65,60,98,86,64,29.76,29.64,17,2,17,0.08
2014-7-16,74,66,58,65,60,53,97,80,55,29.82,29.65,12,2,12,0.12
2014-7-17,70,61,50,60,54,48,97,80,58,30.03,29.81,16,3,16,0.00
2014-7-18,74,62,49,60,53,47,98,75,47,30.19,30.03,12,2,12,0.00
2014-7-19,75,63,52,62,56,50,98,81,52,30.22,30.15,6,1,6,0.00
2014-7-20,75,64,55,64,58,54,98,83,57,30.15,30.07,10,1,10,0.00
2014-7-21,80,66,53,65,59,51,97,78,51,30.14,30.06,12,1,12,0.00
2014-7-22,82,72,59,70,65,57,98,81,60,30.08,29.87,16,3,16,0.00
2014-7-23,85,74,63,72,68,61,97,84,61,29.88,29.62,25,6,25,0.80
2014-7-24,70,62,53,62,56,50,96,80,51,29.89,29.72,15,6,15,0.01
2014-7-25,74,62,48,61,54,47,98,78,58,29.96,29.88,15,4,15,0.00
2014-7-26,74,64,53,60,56,51,97,78,56,29.91,29.79,18,4,18,0.00
2014-7-27,76,66,58,68,62,56,97,89,72,29.81,29.57,12,2,12,0.54
2014-7-28,72,63,56,67,61,55,98,95,84,29.60,29.39,20,4,20,1.12
2014-7-29,68,59,53,57,54,50,97,83,57,29.91,29.56,18,5,18,0.05
2014-7-30,70,60,51,58,53,50,98,80,52,29.97,29.90,12,2,12,0.00
2014-7-31,70,61,52,61,56,50,97,85,67,30.08,29.96,16,2,16,0.00
2014-8-1,78,66,53,64,59,52,98,81,53,30.14,30.08,13,2,13,0.00
2014-8-2,78,66,58,66,60,56,97,82,57,30.13,30.02,10,1,10,0.00
2014-8-3,77,65,55,66,60,54,98,85,65,30.06,29.96,7,0,7,0.00
2014-8-4,76,66,60,66,62,59,98,87,68,29.98,29.94,12,2,12,0.08
2014-8-5,80,66,57,66,61,56,98,87,55,29.98,29.85,18,3,18,0.29
2014-8-6,72,64,53,61,58,50,98,82,58,29.85,29.79,15,4,15,0.19
2014-8-7,68,59,51,58,54,49,96,84,60,29.94,29.83,17,4,17,0.07
2014-8-8,73,61,50,59,55,48,98,81,55,30.03,29.94,17,4,17,0.01
2014-8-9,77,64,52,61,55,51,98,77,43,30.08,30.00,14,3,14,0.00
2014-8-10,78,65,52,63,57,51,98,78,52,30.10,30.05,13,2,13,0.00
2014-8-11,83,67,55,66,60,54,98,79,48,30.08,30.01,8,1,8,0.00
2014-8-12,74,65,54,62,58,52,97,79,54,30.03,29.88,20,4,20,0.00
2014-8-13,66,62,58,63,60,57,98,94,85,29.88,29.60,18,5,18,1.06
2014-8-14,65,58,50,58,51,47,98,79,54,29.82,29.64,21,7,21,0.00
2014-8-15,60,54,48,54,50,47,96,88,75,29.86,29.78,16,5,16,0.01
2014-8-16,66,59,53,55,52,49,91,80,56,29.89,29.81,18,4,18,0.01
2014-8-17,67,60,56,59,56,51,91,84,68,29.81,29.74,18,5,18,0.04
2014-8-18,65,58,49,55,52,47,94,81,57,29.86,29.77,13,4,13,0.04
2014-8-19,73,58,43,58,50,38,98,77,32,29.91,29.83,10,2,10,0.00
2014-8-20,80,64,50,65,58,49,98,81,51,29.97,29.91,7,1,7,0.01
2014-8-21,64,61,56,62,59,55,98,94,84,30.02,29.96,7,1,7,1.11
2014-8-22,62,58,56,60,57,55,98,96,90,30.07,30.00,6,1,6,0.70
2014-8-23,73,61,53,61,57,51,98,88,61,30.09,30.06,7,1,7,0.01
2014-8-24,78,63,51,66,58,50,99,84,52,30.13,30.07,8,1,8,0.01
2014-8-25,80,66,54,66,59,54,99,82,51,30.15,30.07,9,2,9,0.00
2014-8-26,79,67,55,65,60,54,99,80,51,30.10,29.94,17,3,17,0.01
2014-8-27,79,72,62,70,64,59,94,78,70,29.94,29.78,18,6,18,0.00
2014-8-28,66,61,55,61,55,50,92,79,65,29.98,29.78,15,5,15,0.00
2014-8-29,72,61,51,61,54,48,94,79,58,30.15,29.98,12,3,12,0.00
2014-8-30,75,63,51,62,56,50,97,79,56,30.18,30.02,17,4,17,0.00
2014-8-31,74,68,59,69,65,57,97,90,82,30.02,29.87,14,3,14,0.24
2014-9-1,80,71,64,68,65,62,97,84,60,29.92,29.84,17,4,17,0.00
2014-9-2,81,72,63,70,67,62,99,85,65,29.85,29.64,20,4,20,0.55
2014-9-3,74,65,59,65,58,54,96,80,53,30.04,29.65,18,6,18,0.56
2014-9-4,78,65,50,64,58,49,99,80,56,30.12,30.03,14,2,14,0.00
2014-9-5,83,71,58,71,65,57,98,83,62,30.08,29.85,18,4,18,0.00
2014-9-6,79,70,60,70,65,59,96,85,69,29.85,29.69,24,7,24,0.15
2014-9-7,69,60,51,59,53,47,95,78,51,30.18,29.85,12,3,12,0.01
2014-9-8,72,59,47,56,51,46,98,78,49,30.32,30.18,9,2,9,0.00
2014-9-9,67,56,44,54,50,42,97,82,58,30.31,30.15,12,2,12,0.01
2014-9-10,73,58,45,61,53,44,98,84,61,30.15,29.92,10,2,10,0.00
2014-9-11,69,62,56,66,59,51,93,88,82,29.92,29.66,24,7,24,0.06
2014-9-12,56,49,42,52,44,40,95,84,70,30.22,29.88,20,7,20,0.00
2014-9-13,53,47,39,52,45,37,97,92,83,30.24,30.05,15,3,15,0.31
2014-9-14,54,46,38,48,41,37,96,85,66,30.24,30.11,14,5,14,0.00
2014-9-15,60,49,39,48,43,37,98,82,48,30.21,30.04,10,1,10,0.00
2014-9-16,59,52,47,53,49,45,97,91,76,30.04,29.90,12,2,12,0.35
2014-9-17,60,50,38,49,44,38,98,82,55,29.99,29.90,13,2,13,0.01
2014-9-18,58,49,37,52,45,35,97,85,74,30.13,29.90,17,4,17,0.00
2014-9-19,57,42,31,39,34,29,97,75,38,30.35,30.13,9,1,9,0.00
2014-9-20,64,54,38,58,50,35,97,86,77,30.29,29.97,17,3,17,0.00
2014-9-21,77,66,54,66,60,51,97,80,49,29.97,29.47,19,4,19,0.07
2014-9-22,62,53,45,58,46,38,93,78,59,30.05,29.46,26,12,26,0.01
2014-9-23,58,50,38,51,44,36,94,79,63,30.40,30.05,15,4,18,0.00
2014-9-24,67,53,42,55,47,41,98,83,56,30.55,30.40,9,1,9,0.00
2014-9-25,66,52,42,55,48,41,98,87,62,30.48,30.23,6,0,6,0.00
2014-9-26,72,57,45,60,52,44,99,85,60,30.23,30.14,10,2,10,0.01
2014-9-27,75,61,50,62,56,49,98,84,61,30.18,30.12,12,2,12,0.01
2014-9-28,77,63,52,64,57,51,99,83,53,30.13,29.94,15,2,15,0.01
2014-9-29,71,61,53,61,57,52,98,86,62,29.94,29.86,6,1,6,0.00
2014-9-30,68,58,54,59,55,52,94,89,72,29.98,29.89,9,2,9,0.00
2014-10-1,59,56,53,56,54,52,97,94,86,30.08,29.97,5,1,5,0.02
2014-10-2,68,57,50,58,54,48,97,90,69,30.13,30.03,5,0,5,0.01
2014-10-3,68,55,42,51,47,41,98,79,43,30.08,29.79,13,3,13,0.01
2014-10-4,55,52,47,54,50,46,97,95,89,29.79,29.47,20,5,20,0.58
2014-10-5,54,45,36,46,39,35,95,80,54,29.90,29.54,16,6,16,0.00
2014-10-6,62,48,33,48,40,32,98,78,45,30.02,29.90,18,4,18,0.01
2014-10-7,65,57,52,54,50,46,94,79,57,30.00,29.83,22,5,22,0.06
2014-10-8,60,55,48,55,48,36,95,78,54,29.83,29.58,31,11,31,0.39
2014-10-9,54,48,43,38,36,33,76,62,47,29.92,29.76,26,12,26,0.00
2014-10-10,51,45,38,41,38,32,92,77,63,30.08,29.92,20,6,20,0.00
2014-10-11,52,43,34,43,37,33,97,83,57,30.12,30.02,10,1,10,0.00
2014-10-12,54,41,31,41,34,30,97,80,50,30.26,30.11,15,2,15,0.00
2014-10-13,57,45,32,51,42,31,98,89,78,30.27,30.18,5,1,5,0.00
2014-10-14,73,62,51,62,57,49,98,84,66,30.19,30.01,24,4,24,0.01
2014-10-15,75,68,62,64,62,58,93,82,63,30.01,29.83,16,4,16,0.00
2014-10-16,68,64,56,66,62,54,98,94,88,29.82,29.57,13,4,13,1.53
2014-10-17,57,54,53,54,52,51,97,93,81,29.58,29.49,20,4,20,0.02
2014-10-18,55,50,44,51,48,42,94,92,87,29.59,29.45,8,4,14,0.20
2014-10-19,40,36,30,37,30,25,93,80,73,29.95,29.66,8,4,17,0.00
2014-10-20,50,44,29,39,36,25,87,75,58,29.99,29.91,22,3,22,0.00
2014-10-21,47,44,41,46,42,37,98,95,87,30.01,29.89,10,2,10,0.05
2014-10-22,48,46,45,47,45,44,98,96,94,30.07,29.90,12,3,12,0.11
2014-10-23,47,42,40,45,41,39,99,97,92,29.90,29.75,13,5,13,1.35
2014-10-24,42,40,38,41,39,38,99,98,92,29.80,29.73,27,10,27,0.22
2014-10-25,55,46,34,47,42,33,98,85,55,29.80,29.45,15,4,15,0.07
2014-10-26,50,45,42,44,40,37,92,84,76,29.66,29.36,23,12,23,0.09
2014-10-27,52,44,36,41,38,34,91,80,62,29.97,29.66,25,9,25,0.01
2014-10-28,62,48,36,50,43,34,97,84,63,29.99,29.82,12,2,12,0.03
2014-10-29,57,50,39,56,47,35,98,89,75,29.83,29.75,16,4,16,0.12
2014-10-30,47,43,39,40,38,35,87,81,73,29.95,29.80,16,5,16,0.00
2014-10-31,45,39,30,36,34,28,96,81,65,30.01,29.93,14,1,14,0.00
2014-11-1,37,34,31,33,32,30,97,93,84,29.96,29.88,8,2,8,0.04
2014-11-2,35,32,28,31,24,14,97,75,44,29.92,29.81,30,12,30,0.01
2014-11-3,44,35,26,29,21,17,78,58,39,30.03,29.87,23,9,23,0.00
2014-11-4,57,49,34,39,34,27,77,57,33,30.06,29.88,12,3,12,0.00
2014-11-5,60,51,42,46,33,26,89,52,29,30.03,29.83,25,10,25,0.01
2014-11-6,47,40,37,39,36,32,96,86,64,30.03,29.53,8,1,8,0.42
2014-11-7,37,33,30,36,31,26,98,95,84,29.79,29.50,29,10,29,0.04
2014-11-8,37,32,27,30,25,21,89,77,62,29.92,29.78,20,4,20,0.01
2014-11-9,43,36,28,34,30,26,92,77,66,29.96,29.78,21,4,21,0.00
2014-11-10,50,39,28,36,32,26,94,75,57,30.13,29.95,15,3,15,0.00
2014-11-11,59,45,33,46,39,30,96,81,58,30.09,29.88,14,3,14,0.00
2014-11-12,58,43,32,54,39,26,99,88,75,30.01,29.76,22,6,22,0.07
2014-11-13,35,32,28,29,27,24,92,80,72,30.03,29.91,12,4,12,0.00
2014-11-14,32,29,24,28,23,18,92,78,60,30.06,29.88,20,7,20,0.00
2014-11-15,31,25,19,19,16,14,91,70,50,30.28,30.06,20,6,20,0.00
2014-11-16,35,30,18,26,21,14,90,70,53,30.28,30.03,16,3,16,0.00
2014-11-17,40,33,29,39,31,25,98,91,73,30.03,29.40,26,4,26,0.78
2014-11-18,35,23,16,32,14,4,90,66,49,29.78,29.43,37,18,37,0.00
2014-11-19,24,19,13,13,10,6,80,68,46,30.09,29.77,25,8,25,0.00
2014-11-20,31,24,15,22,16,11,89,70,53,29.93,29.74,29,9,29,0.00
2014-11-21,24,20,18,16,12,5,83,69,50,30.36,29.86,25,11,25,0.00
2014-11-22,39,29,18,36,17,0,87,63,23,30.36,30.00,24,8,24,0.00
2014-11-23,50,42,36,42,39,34,95,88,72,30.05,29.95,26,8,26,0.03
2014-11-24,63,53,36,57,49,34,97,85,68,29.95,29.41,27,9,27,0.66
2014-11-25,60,43,36,50,30,26,72,60,52,30.05,29.55,31,11,31,0.00
2014-11-26,37,30,25,28,26,24,95,84,69,30.17,29.82,20,4,20,0.00
2014-11-27,26,24,23,24,22,21,96,94,92,30.01,29.81,17,6,17,0.00
2014-11-28,24,21,14,21,17,10,95,85,72,30.18,29.98,17,6,17,0.00
2014-11-29,27,19,10,19,14,7,91,82,66,30.29,30.13,10,2,10,0.04
2014-11-30,48,37,24,44,33,19,94,88,80,30.13,29.89,18,2,18,0.28
2014-12-1,50,41,27,46,36,18,91,82,62,30.41,29.89,26,10,26,0.02
2014-12-2,29,24,16,26,18,9,94,78,50,30.66,30.33,21,7,21,0.00
2014-12-3,42,35,27,42,33,26,99,93,80,30.33,29.81,29,10,29,0.37
2014-12-4,31,26,15,27,19,12,89,77,60,30.51,30.00,26,8,26,0.00
2014-12-5,30,20,11,27,14,9,94,79,61,30.62,30.41,15,3,15,0.00
2014-12-6,33,31,28,33,30,27,98,98,95,30.38,30.13,18,7,18,0.07
2014-12-7,28,16,4,28,13,2,97,86,72,30.72,30.30,20,7,20,0.00
2014-12-8,22,13,3,20,9,0,94,83,57,30.73,30.51,13,4,13,0.00
2014-12-9,33,29,22,32,28,21,98,96,94,30.51,29.70,12,2,12,0.00
2014-12-10,32,28,26,32,28,25,98,97,96,29.70,29.45,0,0,0,0.00
2014-12-11,29,27,26,28,26,25,97,96,93,29.74,29.45,0,0,0,0.00
2014-12-12,26,25,23,25,24,22,96,95,94,29.91,29.83,0,0,0,0.00
2014-12-13,28,25,23,26,24,22,96,95,93,29.92,29.83,0,0,0,0.00
2014-12-14,30,29,24,28,28,23,97,96,95,29.94,29.82,0,0,0,0.00
2014-12-15,29,27,23,28,26,22,97,96,95,30.10,29.94,0,0,0,0.00
2014-12-16,34,29,22,33,28,20,98,97,95,30.09,29.84,6,1,6,0.00
2014-12-17,38,34,32,37,34,31,99,97,94,29.87,29.70,15,4,15,0.85
2014-12-18,32,30,26,31,28,23,94,90,85,29.85,29.70,26,12,26,0.00
2014-12-19,26,22,17,23,20,14,95,91,87,30.18,29.85,18,7,18,0.00
2014-12-20,30,18,8,22,15,6,93,87,71,30.31,30.18,6,1,6,0.00
2014-12-21,27,24,21,25,22,19,95,93,90,30.34,30.27,5,0,5,0.00
2014-12-22,33,29,24,31,28,23,97,94,88,30.35,30.24,12,2,12,0.00
2014-12-23,36,34,32,35,33,31,98,97,96,30.24,30.11,12,4,12,0.82
2014-12-24,43,38,36,43,37,35,98,97,96,30.11,29.44,13,5,13,0.81
2014-12-25,56,42,36,55,37,29,99,83,73,29.92,29.34,43,15,43,0.48
2014-12-26,38,36,34,31,30,29,86,80,74,30.12,29.92,25,13,25,0.00
2014-12-27,42,38,34,37,32,29,91,81,72,30.16,29.88,20,6,20,0.00
2014-12-28,45,38,29,40,33,21,94,83,70,29.93,29.72,28,13,28,0.23
2014-12-29,29,25,16,22,16,9,76,66,55,30.20,29.93,25,11,25,0.00
2014-12-30,18,14,10,9,3,-6,85,62,34,30.34,30.20,20,6,20,0.00
2014-12-31,18,15,9,11,7,0,85,71,56,30.26,29.99,21,9,21,0.00
2015-1-1,27,21,16,14,9,6,70,61,50,29.99,29.82,29,12,29,0.00
2015-1-2,26,24,17,22,15,8,88,69,58,30.41,29.85,31,13,31,0.00